Time;durP1;ratioP1;P1;durP2;ratioP2;P2;SDS_P1;SDS_P2;PMS_P1;PMS_P2;Temp;Humidity;BMP_temperature;BMP_pressure;BME280_temperature;BME280_humidity;BME280_pressure;Samples;Min_cycle;Max_cycle;Signal;HPM_P1;HPM_P2
2023/10/26 00:01:19;;;;;;;6.60;3.90;;;;;;;9.95;84.18;94412.83;106797;1274;25287;-82
2023/10/26 00:03:47;;;;;;;6.10;4.00;;;;;;;9.95;84.03;94408.98;106781;1274;22514;-83
2023/10/26 00:06:16;;;;;;;5.80;3.70;;;;;;;9.91;83.72;94415.42;106676;1274;23938;-82
2023/10/26 00:08:45;;;;;;;5.20;3.80;;;;;;;9.87;84.18;94410.85;106749;1251;24260;-82
2023/10/26 00:11:13;;;;;;;5.70;3.50;;;;;;;9.93;84.64;94403.80;106795;1274;22584;-82
2023/10/26 00:13:41;;;;;;;5.20;3.50;;;;;;;9.98;84.55;94394.47;106795;1274;24282;-83
2023/10/26 00:16:09;;;;;;;6.70;3.70;;;;;;;9.99;85.09;94395.34;106808;1274;22540;-83
2023/10/26 00:18:37;;;;;;;5.70;3.50;;;;;;;10.04;85.75;94387.95;106775;1274;24507;-82
2023/10/26 00:21:06;;;;;;;5.80;3.70;;;;;;;10.08;85.60;94387.42;106669;1274;22559;-82
2023/10/26 00:23:34;;;;;;;7.10;3.30;;;;;;;10.12;84.95;94381.48;106752;1274;24571;-82
2023/10/26 00:26:02;;;;;;;11.30;5.60;;;;;;;10.15;85.35;94378.77;106788;1263;22520;-83
2023/10/26 00:28:30;;;;;;;8.60;5.60;;;;;;;10.11;85.41;94381.19;106778;1274;25386;-83
2023/10/26 00:30:58;;;;;;;10.20;5.40;;;;;;;10.18;85.71;94372.66;106818;1274;24232;-82
2023/10/26 00:33:26;;;;;;;5.70;3.90;;;;;;;10.25;85.31;94365.41;106712;1274;25290;-83
2023/10/26 00:35:55;;;;;;;5.70;3.50;;;;;;;10.25;85.00;94365.39;106711;1274;22654;-83
2023/10/26 00:38:24;;;;;;;8.60;3.80;;;;;;;10.28;84.86;94361.95;106789;1274;24438;-82
2023/10/26 00:40:52;;;;;;;10.10;3.80;;;;;;;10.30;84.73;94361.89;106829;1274;22520;-81
2023/10/26 00:43:21;;;;;;;4.40;3.10;;;;;;;10.33;84.77;94363.20;106761;1274;22525;-82
2023/10/26 00:45:52;;;;;;;7.40;3.70;;;;;;;10.27;84.72;94366.89;106786;1274;24289;-84
2023/10/26 00:48:20;;;;;;;4.90;3.40;;;;;;;10.26;85.22;94366.94;106744;1260;25746;-83
2023/10/26 00:50:49;;;;;;;8.00;3.10;;;;;;;10.37;85.53;94365.14;106934;1274;275873;-83
2023/10/26 00:53:19;;;;;;;7.40;3.40;;;;;;;10.47;85.16;94359.52;106747;1257;22626;-83
2023/10/26 00:55:51;;;;;;;6.90;3.20;;;;;;;10.47;84.87;94363.18;106849;1274;24369;-82
2023/10/26 00:58:21;;;;;;;3.00;2.70;;;;;;;10.47;84.65;94368.46;106846;1274;25350;-82
2023/10/26 01:00:49;;;;;;;6.90;2.90;;;;;;;10.47;84.69;94367.42;106828;1264;22514;-83
2023/10/26 01:03:19;;;;;;;6.00;3.40;;;;;;;10.43;85.23;94368.45;106758;1274;22637;-83
2023/10/26 01:05:48;;;;;;;4.70;2.90;;;;;;;10.41;84.95;94366.06;106929;1274;24220;-83
2023/10/26 01:08:16;;;;;;;6.90;3.10;;;;;;;10.32;85.52;94366.02;106757;1274;22635;-82
2023/10/26 01:10:45;;;;;;;7.20;3.50;;;;;;;10.32;85.61;94357.59;106747;1274;25399;-83
2023/10/26 01:13:15;;;;;;;5.80;3.50;;;;;;;10.36;85.82;94353.21;106797;1274;24281;-83
2023/10/26 01:15:43;;;;;;;8.80;3.40;;;;;;;10.46;85.87;94350.90;106772;1272;24375;-83
2023/10/26 01:18:11;;;;;;;7.20;3.50;;;;;;;10.56;85.72;94347.38;106807;1274;25542;-83
2023/10/26 01:20:43;;;;;;;5.70;3.30;;;;;;;10.57;85.20;94343.27;106783;1274;25427;-82
2023/10/26 01:23:12;;;;;;;5.80;3.30;;;;;;;10.54;84.73;94347.46;106826;1274;22567;-83
2023/10/26 01:25:40;;;;;;;6.10;3.90;;;;;;;10.50;84.72;94339.02;106826;1274;24390;-82
2023/10/26 01:28:09;;;;;;;3.70;2.00;;;;;;;10.46;84.53;94340.20;106783;1274;22518;-82
2023/10/26 01:30:41;;;;;;;5.30;2.20;;;;;;;10.45;84.81;94341.29;106742;1274;24272;-83
2023/10/26 01:33:09;;;;;;;8.60;3.20;;;;;;;10.38;85.89;94336.80;106792;1274;25284;-82
2023/10/26 01:35:40;;;;;;;4.20;2.60;;;;;;;10.34;86.40;94332.91;106901;1274;25487;-82
2023/10/26 01:38:09;;;;;;;6.80;4.20;;;;;;;10.33;87.18;94327.70;106800;1274;24331;-84
2023/10/26 01:40:37;;;;;;;4.40;2.70;;;;;;;10.31;86.95;94330.75;106793;1274;25300;-82
2023/10/26 01:43:05;;;;;;;8.20;3.50;;;;;;;10.27;87.07;94338.77;106721;1274;23912;-83
2023/10/26 01:45:35;;;;;;;3.40;2.60;;;;;;;10.25;87.51;94336.20;106861;1274;22520;-83
2023/10/26 01:48:03;;;;;;;2.90;2.50;;;;;;;10.24;87.58;94348.04;106849;1274;25583;-83
2023/10/26 01:50:32;;;;;;;6.90;3.40;;;;;;;10.24;87.89;94352.59;106795;1274;22517;-81
2023/10/26 01:53:00;;;;;;;3.40;2.30;;;;;;;10.25;88.14;94359.94;106769;1274;24371;-82
2023/10/26 01:55:28;;;;;;;4.70;1.90;;;;;;;10.28;88.23;94359.48;106808;1274;22762;-83
2023/10/26 01:57:57;;;;;;;5.40;2.50;;;;;;;10.32;88.46;94346.69;106655;1274;22689;-82
2023/10/26 02:00:26;;;;;;;6.20;2.60;;;;;;;10.38;88.56;94343.48;106670;1274;22513;-83
2023/10/26 02:02:55;;;;;;;5.80;2.30;;;;;;;10.42;88.51;94341.40;106796;1274;25350;-82
2023/10/26 02:05:24;;;;;;;3.60;2.60;;;;;;;10.42;88.41;94344.03;106747;1274;22553;-82
2023/10/26 02:07:53;;;;;;;3.40;2.30;;;;;;;10.45;89.07;94343.05;106863;1274;22523;-81
2023/10/26 02:10:23;;;;;;;3.10;1.70;;;;;;;10.47;88.56;94349.48;106778;1274;22792;-81
2023/10/26 02:12:52;;;;;;;4.10;1.30;;;;;;;10.53;88.28;94351.56;106678;1274;25630;-82
2023/10/26 02:15:20;;;;;;;5.20;1.50;;;;;;;10.61;88.73;94352.98;106662;1274;22518;-82
2023/10/26 02:17:48;;;;;;;2.70;1.10;;;;;;;10.71;88.69;94347.16;106855;1260;23096;-82
2023/10/26 02:20:17;;;;;;;2.80;1.70;;;;;;;10.76;88.57;94342.88;106837;1274;25590;-84
2023/10/26 02:22:46;;;;;;;2.60;2.20;;;;;;;10.78;89.01;94337.19;106738;1274;24292;-82
2023/10/26 02:25:15;;;;;;;3.30;2.20;;;;;;;10.74;88.76;94329.59;106871;1274;22523;-83
2023/10/26 02:27:43;;;;;;;7.30;4.50;;;;;;;10.71;89.51;94320.57;106882;1274;22526;-82
2023/10/26 02:30:12;;;;;;;4.50;3.20;;;;;;;10.70;89.71;94307.25;106685;1274;24250;-82
2023/10/26 02:32:41;;;;;;;6.60;3.20;;;;;;;10.71;89.16;94303.70;106763;1274;24396;-82
2023/10/26 02:35:09;;;;;;;2.40;1.50;;;;;;;10.81;89.68;94305.05;106837;1274;25284;-81
2023/10/26 02:37:40;;;;;;;3.30;1.50;;;;;;;10.91;89.63;94311.89;106920;1274;24389;-81
2023/10/26 02:40:09;;;;;;;2.20;1.60;;;;;;;10.99;89.63;94314.52;106800;1274;22514;-81
2023/10/26 02:42:38;;;;;;;3.70;1.80;;;;;;;11.07;89.50;94315.46;106880;1274;22521;-81
2023/10/26 02:45:08;;;;;;;3.80;1.70;;;;;;;11.13;89.09;94317.83;106822;1274;24389;-81
2023/10/26 02:47:40;;;;;;;3.00;1.70;;;;;;;11.17;88.70;94321.56;107061;1274;22539;-81
2023/10/26 02:50:08;;;;;;;3.40;1.40;;;;;;;11.19;88.59;94317.42;107080;1274;22575;-82
2023/10/26 02:52:37;;;;;;;5.80;1.20;;;;;;;11.21;88.56;94314.86;107216;1274;22526;-82
2023/10/26 02:55:07;;;;;;;3.60;1.50;;;;;;;11.25;88.54;94302.04;107151;1274;25369;-81
2023/10/26 02:57:35;;;;;;;1.70;1.30;;;;;;;11.32;88.76;94296.98;107018;1274;22660;-81
2023/10/26 03:00:05;;;;;;;2.70;1.50;;;;;;;11.33;88.43;94290.98;106796;1272;22521;-82
2023/10/26 03:02:35;;;;;;;2.90;1.60;;;;;;;11.27;88.41;94287.35;106841;1274;24384;-82
2023/10/26 03:05:03;;;;;;;4.10;2.00;;;;;;;11.22;88.48;94285.61;106764;1274;25351;-82
2023/10/26 03:07:31;;;;;;;3.80;2.00;;;;;;;11.15;88.81;94280.26;106805;1274;22518;-82
2023/10/26 03:10:00;;;;;;;4.80;2.10;;;;;;;11.13;88.53;94277.20;106804;1274;25252;-83
2023/10/26 03:12:28;;;;;;;5.30;1.70;;;;;;;11.11;89.05;94277.27;106897;1274;25259;-81
2023/10/26 03:14:57;;;;;;;2.30;1.70;;;;;;;11.13;89.22;94275.59;106798;1274;25436;-82
2023/10/26 03:17:25;;;;;;;3.90;1.80;;;;;;;11.15;88.97;94279.55;106831;1274;24318;-81
2023/10/26 03:19:53;;;;;;;5.60;1.90;;;;;;;11.13;88.62;94278.41;106824;1274;24268;-81
2023/10/26 03:22:21;;;;;;;3.20;1.50;;;;;;;11.08;89.06;94274.38;106835;1274;25359;-83
2023/10/26 03:24:51;;;;;;;2.30;1.60;;;;;;;11.07;89.34;94270.94;106783;1274;22523;-82
2023/10/26 03:27:19;;;;;;;2.60;1.30;;;;;;;11.08;89.47;94264.56;106770;1274;26619;-82
2023/10/26 03:29:47;;;;;;;3.40;1.30;;;;;;;11.07;89.39;94268.13;106751;1274;22522;-83
2023/10/26 03:32:15;;;;;;;2.60;1.10;;;;;;;11.11;89.53;94265.48;106686;1274;22876;-82
2023/10/26 03:34:44;;;;;;;4.40;1.60;;;;;;;11.12;89.12;94265.96;106830;1274;24215;-82
2023/10/26 03:37:13;;;;;;;1.90;1.20;;;;;;;11.13;89.03;94262.61;106810;1274;26656;-82
2023/10/26 03:39:41;;;;;;;1.80;1.20;;;;;;;11.13;88.92;94259.06;106777;1274;23912;-81
2023/10/26 03:42:09;;;;;;;2.10;1.30;;;;;;;11.12;89.18;94250.48;106803;1274;25512;-80
2023/10/26 03:44:38;;;;;;;1.30;0.80;;;;;;;11.11;89.23;94247.86;106725;1274;22521;-82
2023/10/26 03:47:08;;;;;;;3.40;1.50;;;;;;;11.10;89.43;94249.34;107037;1274;22520;-81
2023/10/26 03:49:37;;;;;;;4.20;1.60;;;;;;;11.09;89.54;94249.74;107116;1274;25507;-81
2023/10/26 03:52:05;;;;;;;3.70;2.30;;;;;;;11.06;89.29;94248.63;107032;1274;25239;-82
2023/10/26 03:54:33;;;;;;;3.30;1.70;;;;;;;11.03;89.35;94251.73;107092;1274;22669;-82
2023/10/26 03:57:01;;;;;;;2.70;1.20;;;;;;;11.00;88.97;94255.37;107066;1274;22524;-82
2023/10/26 03:59:29;;;;;;;2.50;1.70;;;;;;;10.94;89.00;94256.34;107034;1274;26682;-82
2023/10/26 04:01:58;;;;;;;2.80;1.10;;;;;;;10.87;88.79;94257.51;106680;1274;24240;-81
2023/10/26 04:04:26;;;;;;;2.20;1.30;;;;;;;10.82;89.00;94257.52;106749;1274;22510;-81
2023/10/26 04:06:54;;;;;;;1.80;1.30;;;;;;;10.77;89.06;94261.77;106921;1274;24068;-81
2023/10/26 04:09:23;;;;;;;1.10;1.00;;;;;;;10.74;89.12;94255.39;106824;1274;22519;-82
2023/10/26 04:11:51;;;;;;;1.30;0.70;;;;;;;10.69;89.24;94258.39;106767;1274;22517;-82
2023/10/26 04:14:19;;;;;;;0.90;0.60;;;;;;;10.58;88.79;94263.05;106745;1274;24335;-82
2023/10/26 04:16:49;;;;;;;2.20;0.70;;;;;;;10.53;88.82;94262.38;106657;1274;22547;-81
2023/10/26 04:19:17;;;;;;;0.90;0.40;;;;;;;10.52;89.18;94264.20;106717;1274;22540;-83
2023/10/26 04:21:46;;;;;;;0.50;0.50;;;;;;;10.47;88.78;94257.38;106875;1274;24242;-81
2023/10/26 04:24:14;;;;;;;0.80;0.50;;;;;;;10.40;89.27;94258.84;106792;1274;22524;-82
2023/10/26 04:26:42;;;;;;;3.70;1.70;;;;;;;10.39;89.58;94252.05;106724;1274;22577;-82
2023/10/26 04:29:10;;;;;;;7.70;1.30;;;;;;;10.40;89.65;94247.41;106730;1274;25304;-82
2023/10/26 04:31:38;;;;;;;5.60;3.30;;;;;;;10.36;89.20;94246.02;106851;1274;26748;-82
2023/10/26 04:34:06;;;;;;;2.30;1.00;;;;;;;10.31;89.38;94245.33;106738;1274;25548;-83
2023/10/26 04:36:34;;;;;;;9.80;6.40;;;;;;;10.28;89.74;94238.41;106862;1274;22528;-81
2023/10/26 04:39:04;;;;;;;50.30;41.40;;;;;;;10.23;89.49;94239.48;106806;1274;22578;-82
2023/10/26 04:41:32;;;;;;;2.40;2.10;;;;;;;10.16;89.24;94234.98;107078;1274;22635;-82
2023/10/26 04:44:00;;;;;;;4.20;3.70;;;;;;;10.14;89.29;94237.16;107093;1274;24286;-81
2023/10/26 04:46:28;;;;;;;1.40;0.80;;;;;;;10.12;89.17;94240.02;107093;1274;25341;-82
2023/10/26 04:48:57;;;;;;;4.80;4.40;;;;;;;10.07;89.14;94244.79;107090;1274;25288;-82
2023/10/26 04:51:25;;;;;;;3.00;0.90;;;;;;;10.08;89.53;94243.04;107128;1274;24969;-81
2023/10/26 04:53:53;;;;;;;2.60;2.40;;;;;;;10.08;90.08;94237.40;107080;1274;24390;-82
2023/10/26 04:56:21;;;;;;;2.70;1.70;;;;;;;10.07;90.24;94239.02;107080;1256;24272;-82
2023/10/26 04:58:49;;;;;;;2.80;0.90;;;;;;;10.09;90.66;94230.67;107053;1274;24442;-82
2023/10/26 05:01:17;;;;;;;3.90;3.40;;;;;;;10.13;90.86;94222.29;107062;1263;22516;-83
2023/10/26 05:03:45;;;;;;;5.20;4.70;;;;;;;10.20;91.16;94220.05;107089;1274;24262;-83
2023/10/26 05:06:13;;;;;;;2.30;1.30;;;;;;;10.21;90.41;94222.50;107054;1274;25347;-83
2023/10/26 05:08:41;;;;;;;5.90;5.20;;;;;;;10.16;89.97;94236.04;107104;1274;22639;-81
2023/10/26 05:11:09;;;;;;;6.60;6.10;;;;;;;10.21;90.55;94247.96;106996;1251;22511;-82
2023/10/26 05:13:38;;;;;;;6.30;5.70;;;;;;;10.22;90.17;94251.45;107103;1274;24400;-82
2023/10/26 05:16:06;;;;;;;6.40;4.50;;;;;;;10.24;90.35;94251.54;107069;1274;22520;-82
2023/10/26 05:18:34;;;;;;;4.90;3.90;;;;;;;10.28;90.53;94254.75;107092;1274;22531;-82
2023/10/26 05:21:02;;;;;;;3.30;2.60;;;;;;;10.32;90.65;94249.83;107062;1251;25502;-81
2023/10/26 05:23:31;;;;;;;3.40;2.20;;;;;;;10.39;90.68;94252.36;107080;1274;25246;-82
2023/10/26 05:25:59;;;;;;;3.70;3.10;;;;;;;10.43;90.67;94260.15;107115;1274;22966;-83
2023/10/26 05:28:27;;;;;;;5.00;3.00;;;;;;;10.47;90.80;94251.04;107054;1274;24226;-84
2023/10/26 05:30:55;;;;;;;6.10;3.30;;;;;;;10.51;90.80;94251.05;107050;1274;22523;-83
2023/10/26 05:33:24;;;;;;;6.00;4.60;;;;;;;10.51;90.45;94255.96;107109;1274;23105;-83
2023/10/26 05:35:52;;;;;;;14.00;12.10;;;;;;;10.57;90.66;94258.54;106943;1273;26531;-82
2023/10/26 05:38:21;;;;;;;7.60;6.50;;;;;;;10.72;90.61;94258.09;106815;1273;24221;-82
2023/10/26 05:40:52;;;;;;;6.50;5.60;;;;;;;10.82;90.25;94263.86;106849;1274;22627;-82
2023/10/26 05:43:21;;;;;;;8.90;6.00;;;;;;;10.92;90.39;94266.98;106872;1251;22621;-83
2023/10/26 05:45:49;;;;;;;5.10;3.40;;;;;;;11.00;90.34;94262.95;106861;1274;22531;-82
2023/10/26 05:48:19;;;;;;;7.50;5.10;;;;;;;11.07;90.19;94264.60;107025;1273;25500;-82
2023/10/26 05:50:47;;;;;;;5.70;5.00;;;;;;;11.15;90.18;94266.00;106907;1274;22535;-81
2023/10/26 05:53:15;;;;;;;6.60;4.40;;;;;;;11.20;89.97;94264.20;106919;1274;23913;-82
2023/10/26 05:55:55;;;;;;;5.00;4.50;;;;;;;11.27;89.79;94264.98;106905;1274;23887;-81
2023/10/26 05:58:24;;;;;;;7.50;4.70;;;;;;;11.31;89.62;94269.40;106881;1273;22542;-82
2023/10/26 06:00:52;;;;;;;6.70;5.30;;;;;;;11.34;89.74;94273.12;106906;1274;25233;-82
2023/10/26 06:03:21;;;;;;;8.90;4.00;;;;;;;11.36;89.84;94276.93;106901;1273;22633;-82
2023/10/26 06:05:49;;;;;;;4.00;3.10;;;;;;;11.39;89.70;94279.98;106891;1273;25612;-81
2023/10/26 06:08:18;;;;;;;3.00;0.90;;;;;;;11.42;89.73;94287.57;106920;1274;25421;-81
2023/10/26 06:10:46;;;;;;;2.10;1.30;;;;;;;11.63;89.16;94290.00;106867;1273;22514;-82
2023/10/26 06:13:14;;;;;;;4.20;2.30;;;;;;;11.83;88.71;94288.11;106866;1273;22521;-82
2023/10/26 06:15:42;;;;;;;4.60;3.60;;;;;;;12.01;88.20;94280.09;106881;1274;25375;-83
2023/10/26 06:18:12;;;;;;;6.10;4.50;;;;;;;12.07;87.28;94270.27;106884;1273;22522;-81
2023/10/26 06:20:41;;;;;;;5.10;2.30;;;;;;;12.12;86.88;94273.06;106899;1274;22536;-81
2023/10/26 06:23:11;;;;;;;4.60;2.90;;;;;;;12.24;87.13;94280.09;106914;1273;23896;-82
2023/10/26 06:25:39;;;;;;;3.30;2.40;;;;;;;12.34;87.48;94284.56;106872;1273;23482;-82
2023/10/26 06:28:07;;;;;;;4.40;2.20;;;;;;;12.40;87.48;94283.79;106909;1273;24275;-83
2023/10/26 06:30:35;;;;;;;1.50;1.30;;;;;;;12.46;87.50;94285.58;106923;1273;22749;-80
2023/10/26 06:33:03;;;;;;;4.40;2.00;;;;;;;12.56;86.52;94289.20;106690;1273;25427;-82
2023/10/26 06:35:32;;;;;;;1.70;1.30;;;;;;;12.65;86.48;94285.98;106840;1273;25523;-82
2023/10/26 06:38:00;;;;;;;4.10;1.70;;;;;;;12.71;86.70;94288.13;106878;1272;22526;-83
2023/10/26 06:40:28;;;;;;;2.70;1.40;;;;;;;12.75;87.07;94288.31;106900;1274;22629;-82
2023/10/26 06:42:57;;;;;;;2.20;1.20;;;;;;;12.79;87.64;94288.64;106869;1274;22528;-82
2023/10/26 06:45:25;;;;;;;3.60;1.30;;;;;;;12.90;87.91;94288.66;106826;1273;22521;-81
2023/10/26 06:47:53;;;;;;;1.30;0.60;;;;;;;13.00;87.49;94284.63;106870;1274;25430;-83
2023/10/26 06:50:23;;;;;;;2.90;1.00;;;;;;;13.09;86.18;94277.66;106963;1273;22534;-82
2023/10/26 06:52:51;;;;;;;4.70;1.00;;;;;;;13.17;86.27;94273.20;106871;1273;25363;-82
2023/10/26 06:55:19;;;;;;;4.50;1.30;;;;;;;13.28;86.42;94274.43;106882;1273;22531;-81
2023/10/26 06:57:58;;;;;;;3.90;1.10;;;;;;;13.37;86.55;94268.48;106907;1273;25539;-81
2023/10/26 07:00:26;;;;;;;1.10;0.60;;;;;;;13.47;86.21;94272.11;106909;1270;22525;-80
2023/10/26 07:02:54;;;;;;;1.90;0.60;;;;;;;13.56;85.47;94271.58;106788;1273;24251;-81
2023/10/26 07:05:23;;;;;;;4.60;2.50;;;;;;;13.69;85.59;94270.41;106901;1273;25945;-84
2023/10/26 07:07:51;;;;;;;3.00;1.30;;;;;;;13.74;85.37;94272.11;106868;1273;22792;-82
2023/10/26 07:10:20;;;;;;;3.10;1.60;;;;;;;13.74;84.50;94274.20;106832;1273;26659;-83
2023/10/26 07:12:48;;;;;;;3.80;2.00;;;;;;;13.77;84.77;94265.90;106891;1273;24350;-83
2023/10/26 07:15:16;;;;;;;2.00;1.80;;;;;;;13.79;83.92;94270.05;106902;1274;25424;-83
2023/10/26 07:17:44;;;;;;;3.70;2.70;;;;;;;13.80;84.29;94273.54;106780;1260;24244;-82
2023/10/26 07:20:13;;;;;;;2.10;1.50;;;;;;;13.83;83.38;94273.91;106933;1273;22517;-82
2023/10/26 07:22:45;;;;;;;4.60;2.10;;;;;;;13.91;83.36;94281.83;106895;1274;22534;-84
2023/10/26 07:25:13;;;;;;;2.20;1.20;;;;;;;13.98;82.63;94284.10;106898;1274;25427;-82
2023/10/26 07:27:41;;;;;;;1.60;0.90;;;;;;;14.05;81.49;94284.23;106709;1274;22527;-84
2023/10/26 07:30:11;;;;;;;2.10;0.80;;;;;;;14.15;80.50;94285.67;106767;1274;24934;-84
2023/10/26 07:32:39;;;;;;;1.30;0.70;;;;;;;14.26;79.39;94282.22;106927;1273;24982;-84
2023/10/26 07:35:08;;;;;;;4.00;0.70;;;;;;;14.39;79.32;94283.86;106882;1273;22617;-81
2023/10/26 07:37:37;;;;;;;1.10;0.90;;;;;;;14.46;78.62;94284.15;106956;1273;22536;-83
2023/10/26 07:40:07;;;;;;;2.40;1.50;;;;;;;14.53;78.37;94287.20;106829;1274;22534;-81
2023/10/26 07:42:55;;;;;;;3.20;1.40;;;;;;;14.59;78.06;94289.85;106811;1274;24393;-83
2023/10/26 07:45:25;;;;;;;2.00;1.20;;;;;;;14.66;77.41;94293.20;106924;1273;22548;-82
2023/10/26 07:47:58;;;;;;;2.80;1.10;;;;;;;14.74;77.49;94288.90;106900;1273;22531;-83
2023/10/26 07:50:29;;;;;;;2.00;1.80;;;;;;;14.80;77.38;94282.66;106867;1274;23944;-83
2023/10/26 07:52:57;;;;;;;2.10;0.70;;;;;;;14.89;77.44;94281.08;106904;1273;24215;-83
2023/10/26 07:55:26;;;;;;;2.10;1.00;;;;;;;14.98;76.69;94274.06;106810;1274;24216;-83
2023/10/26 07:57:54;;;;;;;3.30;0.90;;;;;;;15.06;76.52;94270.77;106805;1274;22521;-83
2023/10/26 08:00:22;;;;;;;2.40;1.20;;;;;;;15.10;76.43;94277.09;107084;1273;22639;-83
2023/10/26 08:02:50;;;;;;;3.30;2.10;;;;;;;15.16;76.09;94277.62;107081;1274;22636;-83
2023/10/26 08:05:19;;;;;;;2.40;1.00;;;;;;;15.26;76.16;94276.91;106952;1274;22552;-83
2023/10/26 08:07:47;;;;;;;3.90;1.10;;;;;;;15.35;75.59;94272.79;106907;1274;22535;-83
2023/10/26 08:10:16;;;;;;;2.40;0.70;;;;;;;15.45;74.64;94271.85;106819;1274;25422;-82
2023/10/26 08:12:44;;;;;;;2.60;0.70;;;;;;;15.51;73.97;94272.77;106885;1273;25601;-83
2023/10/26 08:15:13;;;;;;;3.50;0.90;;;;;;;15.61;75.32;94276.80;106862;1274;26627;-83
2023/10/26 08:18:01;;;;;;;2.50;0.90;;;;;;;15.73;74.19;94284.77;106852;1274;22749;-82
2023/10/26 08:20:29;;;;;;;1.80;0.70;;;;;;;15.79;73.88;94289.39;106845;1273;26681;-82
2023/10/26 08:22:57;;;;;;;2.30;1.40;;;;;;;15.87;73.82;94285.58;106902;1274;24264;-80
2023/10/26 08:25:25;;;;;;;1.90;1.10;;;;;;;15.95;73.46;94282.23;106860;1274;24348;-83
2023/10/26 08:27:53;;;;;;;3.10;1.20;;;;;;;15.95;72.24;94275.33;106874;1274;25239;-82
2023/10/26 08:30:21;;;;;;;3.70;1.10;;;;;;;15.93;72.94;94282.90;106905;1274;23911;-81
2023/10/26 08:32:53;;;;;;;3.30;1.40;;;;;;;15.88;71.23;94283.89;106716;1257;24257;-81
2023/10/26 08:35:22;;;;;;;5.00;2.10;;;;;;;15.76;70.81;94285.48;107018;1274;22528;-83
2023/10/26 08:37:51;;;;;;;14.30;2.20;;;;;;;15.67;72.05;94293.81;106995;1274;25513;-82
2023/10/26 08:40:19;;;;;;;6.30;2.00;;;;;;;15.59;72.14;94291.95;106833;1274;22651;-83
2023/10/26 08:42:48;;;;;;;4.70;1.30;;;;;;;15.56;72.67;94291.07;106826;1274;22971;-81
2023/10/26 08:45:22;;;;;;;2.00;1.50;;;;;;;15.54;73.02;94290.85;106831;1273;22582;-83
2023/10/26 08:47:51;;;;;;;4.20;1.50;;;;;;;15.58;73.86;94298.92;106862;1274;25427;-82
2023/10/26 08:50:21;;;;;;;1.80;0.80;;;;;;;15.62;73.90;94295.88;106933;1274;22524;-83
2023/10/26 08:52:51;;;;;;;2.20;0.90;;;;;;;15.61;73.33;94292.73;106914;1274;22547;-83
2023/10/26 08:55:20;;;;;;;2.30;0.90;;;;;;;15.61;73.18;94294.71;106914;1274;24505;-82
2023/10/26 08:57:54;;;;;;;1.90;1.00;;;;;;;15.63;73.68;94294.03;106902;1274;22597;-83
2023/10/26 09:00:23;;;;;;;3.90;1.30;;;;;;;15.72;74.34;94293.38;106960;1274;22749;-82
2023/10/26 09:02:51;;;;;;;1.70;0.90;;;;;;;15.72;72.97;94293.86;106841;1274;22526;-82
2023/10/26 09:05:19;;;;;;;2.40;1.10;;;;;;;15.72;72.52;94293.38;106781;1274;22533;-83
2023/10/26 09:07:48;;;;;;;2.40;1.10;;;;;;;15.68;72.24;94287.55;106856;1274;25341;-82
2023/10/26 09:10:35;;;;;;;3.00;1.10;;;;;;;15.65;72.39;94288.80;106912;1274;23890;-82
2023/10/26 09:13:07;;;;;;;2.00;1.10;;;;;;;15.62;72.22;94292.51;106942;1274;22545;-83
2023/10/26 09:15:47;;;;;;;2.20;1.00;;;;;;;15.58;71.87;94285.48;106918;1275;22530;-82
2023/10/26 09:18:16;;;;;;;1.40;1.00;;;;;;;15.53;71.01;94283.77;106914;1274;22547;-81
2023/10/26 09:21:04;;;;;;;0.90;0.80;;;;;;;15.53;71.31;94285.42;106946;1273;25379;-80
2023/10/26 09:23:35;;;;;;;1.00;0.80;;;;;;;15.55;71.15;94282.44;106939;1273;24482;-81
2023/10/26 09:26:07;;;;;;;1.50;0.90;;;;;;;15.57;71.43;94278.97;106888;1273;22532;-81
2023/10/26 09:28:48;;;;;;;1.10;0.80;;;;;;;15.57;71.69;94278.10;106915;1274;22535;-81
2023/10/26 09:31:17;;;;;;;2.20;1.10;;;;;;;15.56;72.12;94275.27;106900;1273;22664;-82
2023/10/26 09:33:47;;;;;;;4.60;2.10;;;;;;;15.60;72.45;94279.85;106913;1275;22535;-83
2023/10/26 09:36:17;;;;;;;0.90;0.80;;;;;;;15.64;71.61;94274.87;106825;1274;25300;-81
2023/10/26 09:38:47;;;;;;;1.70;0.90;;;;;;;15.66;71.74;94273.83;106967;1273;22630;-81
2023/10/26 09:41:18;;;;;;;1.80;1.10;;;;;;;15.68;71.98;94277.98;106782;1274;22935;-81
2023/10/26 09:43:47;;;;;;;2.40;1.00;;;;;;;15.71;72.11;94278.15;106905;1270;22534;-81
2023/10/26 09:46:20;;;;;;;1.70;1.10;;;;;;;15.79;72.15;94277.14;106969;1270;22532;-81
2023/10/26 09:48:49;;;;;;;4.30;2.00;;;;;;;15.81;70.41;94273.69;106822;1273;22569;-80
2023/10/26 09:51:18;;;;;;;2.00;1.10;;;;;;;15.85;70.83;94268.48;106827;1274;22529;-81
2023/10/26 09:53:48;;;;;;;2.50;1.40;;;;;;;15.88;70.44;94265.10;106862;1273;25443;-80
2023/10/26 09:56:25;;;;;;;4.30;1.40;;;;;;;15.89;69.92;94263.10;106888;1273;22581;-81
2023/10/26 09:58:54;;;;;;;2.60;1.30;;;;;;;15.88;69.28;94261.90;106882;1263;24094;-80
2023/10/26 10:01:35;;;;;;;1.60;0.90;;;;;;;15.89;69.88;94255.12;106735;1273;25313;-80
2023/10/26 10:04:05;;;;;;;1.90;1.40;;;;;;;15.92;70.38;94248.00;106809;1274;22875;-81
2023/10/26 10:06:53;;;;;;;2.30;1.40;;;;;;;15.94;69.89;94246.48;106907;1274;25236;-81
2023/10/26 10:09:23;;;;;;;1.60;1.10;;;;;;;15.90;69.02;94246.88;106939;1274;25417;-81
2023/10/26 10:12:38;;;;;;;2.20;1.10;;;;;;;15.88;68.85;94254.29;106895;1274;24432;-81
2023/10/26 10:15:03;;;;;;;5.00;1.60;;;;;;;15.79;67.64;94253.59;106775;1274;24467;-81
2023/10/26 10:17:51;;;;;;;2.10;1.30;;;;;;;15.72;68.02;94256.30;106901;1274;22536;-81
2023/10/26 10:20:31;;;;;;;1.20;1.00;;;;;;;15.70;68.66;94256.44;106890;1273;22556;-81
2023/10/26 10:23:02;;;;;;;2.00;1.10;;;;;;;15.70;68.78;94250.58;106858;1274;22527;-80
2023/10/26 10:25:48;;;;;;;1.00;0.90;;;;;;;15.71;68.90;94246.27;106892;1274;24235;-80
2023/10/26 10:28:18;;;;;;;2.60;1.50;;;;;;;15.71;68.99;94246.98;106872;1274;23915;-80
2023/10/26 10:30:55;;;;;;;3.00;1.40;;;;;;;15.73;69.38;94247.04;106887;1274;25463;-80
2023/10/26 10:33:26;;;;;;;6.50;1.60;;;;;;;15.77;69.53;94246.06;106773;1274;24285;-80
2023/10/26 10:36:05;;;;;;;4.10;1.70;;;;;;;15.81;69.28;94244.45;106934;1274;25618;-81
2023/10/26 10:38:33;;;;;;;2.40;1.10;;;;;;;15.85;68.77;94235.70;106787;1274;22526;-81
2023/10/26 10:41:01;;;;;;;3.70;0.90;;;;;;;15.86;68.22;94232.39;106784;1274;22633;-80
2023/10/26 10:43:46;;;;;;;3.20;1.10;;;;;;;15.89;67.89;94227.27;106865;1274;22528;-80
2023/10/26 10:46:31;;;;;;;1.90;1.00;;;;;;;15.98;68.63;94223.36;106711;1274;22540;-81
2023/10/26 10:49:00;;;;;;;2.40;1.00;;;;;;;16.16;68.98;94214.23;107116;1273;25571;-80
2023/10/26 10:51:32;;;;;;;3.30;1.40;;;;;;;16.50;68.46;94211.23;107063;1274;24377;-80
2023/10/26 10:54:09;;;;;;;3.90;1.10;;;;;;;16.68;66.07;94210.08;107047;1274;24271;-80
2023/10/26 10:56:57;;;;;;;3.20;2.00;;;;;;;16.89;67.57;94200.40;107099;1274;22639;-80
2023/10/26 10:59:29;;;;;;;1.70;0.80;;;;;;;17.10;67.05;94200.41;107079;1274;24247;-80
2023/10/26 11:02:08;;;;;;;2.30;1.00;;;;;;;17.04;64.37;94197.59;107058;1274;22537;-81
2023/10/26 11:04:57;;;;;;;4.70;1.30;;;;;;;16.98;64.97;94200.13;107098;1274;22524;-80
2023/10/26 11:07:30;;;;;;;3.40;1.00;;;;;;;16.94;65.53;94197.77;107075;1274;25422;-81
2023/10/26 11:10:00;;;;;;;1.50;0.90;;;;;;;16.93;65.05;94194.11;107000;1274;22520;-80
2023/10/26 11:12:29;;;;;;;1.50;0.80;;;;;;;16.80;63.81;94192.27;106856;1274;25497;-80
2023/10/26 11:14:57;;;;;;;1.50;1.00;;;;;;;16.94;65.11;94189.38;106749;1273;22637;-80
2023/10/26 11:17:29;;;;;;;4.30;1.10;;;;;;;17.08;65.03;94188.81;106822;1274;22546;-80
2023/10/26 11:19:57;;;;;;;1.70;1.20;;;;;;;17.48;63.53;94173.67;106859;1274;22794;-81
2023/10/26 11:22:25;;;;;;;1.70;1.20;;;;;;;17.87;62.19;94179.41;106814;1262;22524;-79
2023/10/26 11:24:53;;;;;;;2.30;1.20;;;;;;;17.82;60.55;94177.42;106797;1274;22779;-81
2023/10/26 11:27:22;;;;;;;1.80;1.30;;;;;;;17.90;61.71;94184.73;106855;1274;26704;-78
2023/10/26 11:30:04;;;;;;;2.20;1.20;;;;;;;17.90;60.27;94191.10;107093;1273;22530;-81
2023/10/26 11:32:34;;;;;;;2.00;1.20;;;;;;;18.16;61.18;94189.45;107114;1273;24253;-80
2023/10/26 11:35:07;;;;;;;1.20;1.10;;;;;;;18.38;61.36;94185.62;106994;1273;25273;-80
2023/10/26 11:37:36;;;;;;;2.60;1.80;;;;;;;18.51;61.58;94187.70;106802;1274;26492;-81